sensor_id;sensor_type;location;lat;lon;timestamp;P1;P2;P0
49914;PMS5003;35806;47.958;13.158;2023-05-16T00:00:38;8;8;
49914;PMS5003;35806;47.958;13.158;2023-05-16T00:03:07;10;10;
49914;PMS5003;35806;47.958;13.158;2023-05-16T00:05:40;11;10;
49914;PMS5003;35806;47.958;13.158;2023-05-16T00:08:07;10;10;
49914;PMS5003;35806;47.958;13.158;2023-05-16T00:10:50;9;9;
49914;PMS5003;35806;47.958;13.158;2023-05-16T00:13:18;11;10;
49914;PMS5003;35806;47.958;13.158;2023-05-16T00:15:47;11;11;
49914;PMS5003;35806;47.958;13.158;2023-05-16T00:18:15;12;11;
49914;PMS5003;35806;47.958;13.158;2023-05-16T00:20:42;11;11;
49914;PMS5003;35806;47.958;13.158;2023-05-16T00:23:10;7;7;
49914;PMS5003;35806;47.958;13.158;2023-05-16T00:25:37;9;9;
49914;PMS5003;35806;47.958;13.158;2023-05-16T00:28:06;9;8;
49914;PMS5003;35806;47.958;13.158;2023-05-16T00:30:33;8;8;
49914;PMS5003;35806;47.958;13.158;2023-05-16T00:33:06;11;10;
49914;PMS5003;35806;47.958;13.158;2023-05-16T00:35:34;8;8;
49914;PMS5003;35806;47.958;13.158;2023-05-16T00:38:06;9;9;
49914;PMS5003;35806;47.958;13.158;2023-05-16T00:40:38;10;9;
49914;PMS5003;35806;47.958;13.158;2023-05-16T00:43:06;8;8;
49914;PMS5003;35806;47.958;13.158;2023-05-16T00:45:34;9;9;
49914;PMS5003;35806;47.958;13.158;2023-05-16T00:48:11;8;8;
49914;PMS5003;35806;47.958;13.158;2023-05-16T00:50:39;8;8;
49914;PMS5003;35806;47.958;13.158;2023-05-16T00:53:07;10;8;
49914;PMS5003;35806;47.958;13.158;2023-05-16T00:55:35;9;9;
49914;PMS5003;35806;47.958;13.158;2023-05-16T00:58:04;10;10;
49914;PMS5003;35806;47.958;13.158;2023-05-16T01:15:49;11;8;
49914;PMS5003;35806;47.958;13.158;2023-05-16T01:16:58;8;7;
49914;PMS5003;35806;47.958;13.158;2023-05-16T01:19:42;9;9;
49914;PMS5003;35806;47.958;13.158;2023-05-16T01:22:25;8;7;
49914;PMS5003;35806;47.958;13.158;2023-05-16T01:25:04;10;8;
49914;PMS5003;35806;47.958;13.158;2023-05-16T01:27:37;9;8;
49914;PMS5003;35806;47.958;13.158;2023-05-16T01:30:14;8;8;
49914;PMS5003;35806;47.958;13.158;2023-05-16T01:32:44;8;8;
49914;PMS5003;35806;47.958;13.158;2023-05-16T01:35:17;10;10;
49914;PMS5003;35806;47.958;13.158;2023-05-16T01:37:47;8;8;
49914;PMS5003;35806;47.958;13.158;2023-05-16T01:40:25;6;6;
49914;PMS5003;35806;47.958;13.158;2023-05-16T01:43:00;11;11;
49914;PMS5003;35806;47.958;13.158;2023-05-16T01:45:43;6;6;
49914;PMS5003;35806;47.958;13.158;2023-05-16T01:48:22;7;7;
49914;PMS5003;35806;47.958;13.158;2023-05-16T01:50:56;6;6;
49914;PMS5003;35806;47.958;13.158;2023-05-16T01:53:26;8;8;
49914;PMS5003;35806;47.958;13.158;2023-05-16T01:55:58;10;9;
49914;PMS5003;35806;47.958;13.158;2023-05-16T01:58:40;5;5;
49914;PMS5003;35806;47.958;13.158;2023-05-16T02:01:09;6;6;
49914;PMS5003;35806;47.958;13.158;2023-05-16T02:03:39;8;6;
49914;PMS5003;35806;47.958;13.158;2023-05-16T02:06:13;9;9;
49914;PMS5003;35806;47.958;13.158;2023-05-16T02:08:41;7;6;
49914;PMS5003;35806;47.958;13.158;2023-05-16T02:11:10;8;8;
49914;PMS5003;35806;47.958;13.158;2023-05-16T02:13:37;8;8;
49914;PMS5003;35806;47.958;13.158;2023-05-16T02:16:14;8;8;
49914;PMS5003;35806;47.958;13.158;2023-05-16T02:18:41;8;8;
49914;PMS5003;35806;47.958;13.158;2023-05-16T02:21:19;7;7;
49914;PMS5003;35806;47.958;13.158;2023-05-16T02:23:52;6;6;
49914;PMS5003;35806;47.958;13.158;2023-05-16T02:26:19;8;8;
49914;PMS5003;35806;47.958;13.158;2023-05-16T02:28:46;8;7;
49914;PMS5003;35806;47.958;13.158;2023-05-16T02:31:24;10;9;
49914;PMS5003;35806;47.958;13.158;2023-05-16T02:33:52;6;6;
49914;PMS5003;35806;47.958;13.158;2023-05-16T02:36:19;7;7;
49914;PMS5003;35806;47.958;13.158;2023-05-16T02:38:47;7;7;
49914;PMS5003;35806;47.958;13.158;2023-05-16T02:41:16;8;7;
49914;PMS5003;35806;47.958;13.158;2023-05-16T02:43:44;10;8;
49914;PMS5003;35806;47.958;13.158;2023-05-16T02:46:20;7;6;
49914;PMS5003;35806;47.958;13.158;2023-05-16T02:48:50;7;6;
49914;PMS5003;35806;47.958;13.158;2023-05-16T02:51:18;6;6;
49914;PMS5003;35806;47.958;13.158;2023-05-16T02:53:46;7;7;
49914;PMS5003;35806;47.958;13.158;2023-05-16T02:56:13;7;7;
49914;PMS5003;35806;47.958;13.158;2023-05-16T02:58:40;8;8;
49914;PMS5003;35806;47.958;13.158;2023-05-16T03:01:08;9;9;
49914;PMS5003;35806;47.958;13.158;2023-05-16T03:03:36;7;7;
49914;PMS5003;35806;47.958;13.158;2023-05-16T03:06:03;7;7;
49914;PMS5003;35806;47.958;13.158;2023-05-16T03:08:31;6;6;
49914;PMS5003;35806;47.958;13.158;2023-05-16T03:10:58;8;8;
49914;PMS5003;35806;47.958;13.158;2023-05-16T03:13:26;7;6;
49914;PMS5003;35806;47.958;13.158;2023-05-16T03:15:53;10;8;
49914;PMS5003;35806;47.958;13.158;2023-05-16T03:18:22;6;6;
49914;PMS5003;35806;47.958;13.158;2023-05-16T03:20:50;9;9;
49914;PMS5003;35806;47.958;13.158;2023-05-16T03:23:17;7;6;
49914;PMS5003;35806;47.958;13.158;2023-05-16T03:25:44;7;7;
49914;PMS5003;35806;47.958;13.158;2023-05-16T03:28:12;7;7;
49914;PMS5003;35806;47.958;13.158;2023-05-16T03:30:44;7;6;
49914;PMS5003;35806;47.958;13.158;2023-05-16T03:33:11;9;9;
49914;PMS5003;35806;47.958;13.158;2023-05-16T03:35:39;9;8;
49914;PMS5003;35806;47.958;13.158;2023-05-16T03:38:06;8;8;
49914;PMS5003;35806;47.958;13.158;2023-05-16T03:40:34;9;8;
49914;PMS5003;35806;47.958;13.158;2023-05-16T03:43:01;9;9;
49914;PMS5003;35806;47.958;13.158;2023-05-16T03:45:29;9;9;
49914;PMS5003;35806;47.958;13.158;2023-05-16T03:48:01;7;7;
49914;PMS5003;35806;47.958;13.158;2023-05-16T03:50:30;10;10;
49914;PMS5003;35806;47.958;13.158;2023-05-16T03:53:02;7;7;
49914;PMS5003;35806;47.958;13.158;2023-05-16T03:55:30;7;7;
49914;PMS5003;35806;47.958;13.158;2023-05-16T03:57:59;8;8;
49914;PMS5003;35806;47.958;13.158;2023-05-16T04:00:27;10;10;
49914;PMS5003;35806;47.958;13.158;2023-05-16T04:02:54;10;10;
49914;PMS5003;35806;47.958;13.158;2023-05-16T04:05:22;9;9;
49914;PMS5003;35806;47.958;13.158;2023-05-16T04:07:55;8;8;
49914;PMS5003;35806;47.958;13.158;2023-05-16T04:10:27;7;7;
49914;PMS5003;35806;47.958;13.158;2023-05-16T04:12:54;11;10;
49914;PMS5003;35806;47.958;13.158;2023-05-16T04:15:28;11;11;
49914;PMS5003;35806;47.958;13.158;2023-05-16T04:17:54;8;8;
49914;PMS5003;35806;47.958;13.158;2023-05-16T04:20:22;10;9;
49914;PMS5003;35806;47.958;13.158;2023-05-16T04:22:50;9;9;
49914;PMS5003;35806;47.958;13.158;2023-05-16T04:25:17;10;10;
49914;PMS5003;35806;47.958;13.158;2023-05-16T04:27:44;13;12;
49914;PMS5003;35806;47.958;13.158;2023-05-16T04:30:12;8;8;
49914;PMS5003;35806;47.958;13.158;2023-05-16T04:32:40;10;10;
49914;PMS5003;35806;47.958;13.158;2023-05-16T04:35:07;13;13;
49914;PMS5003;35806;47.958;13.158;2023-05-16T04:37:35;10;8;
49914;PMS5003;35806;47.958;13.158;2023-05-16T04:40:02;12;11;
49914;PMS5003;35806;47.958;13.158;2023-05-16T04:42:30;12;12;
49914;PMS5003;35806;47.958;13.158;2023-05-16T04:44:57;14;12;
49914;PMS5003;35806;47.958;13.158;2023-05-16T04:47:24;10;10;
49914;PMS5003;35806;47.958;13.158;2023-05-16T04:49:51;10;10;
49914;PMS5003;35806;47.958;13.158;2023-05-16T05:09:20;10;10;
49914;PMS5003;35806;47.958;13.158;2023-05-16T05:11:47;12;11;
49914;PMS5003;35806;47.958;13.158;2023-05-16T05:14:15;10;10;
49914;PMS5003;35806;47.958;13.158;2023-05-16T05:16:42;13;10;
49914;PMS5003;35806;47.958;13.158;2023-05-16T05:19:11;9;9;
49914;PMS5003;35806;47.958;13.158;2023-05-16T05:21:38;11;10;
49914;PMS5003;35806;47.958;13.158;2023-05-16T05:24:06;11;11;
49914;PMS5003;35806;47.958;13.158;2023-05-16T05:26:33;10;10;
49914;PMS5003;35806;47.958;13.158;2023-05-16T05:29:01;13;13;
49914;PMS5003;35806;47.958;13.158;2023-05-16T05:31:29;12;12;
49914;PMS5003;35806;47.958;13.158;2023-05-16T05:33:56;10;10;
49914;PMS5003;35806;47.958;13.158;2023-05-16T05:36:34;11;11;
49914;PMS5003;35806;47.958;13.158;2023-05-16T05:39:02;11;10;
49914;PMS5003;35806;47.958;13.158;2023-05-16T05:41:29;13;12;
49914;PMS5003;35806;47.958;13.158;2023-05-16T05:43:56;13;12;
49914;PMS5003;35806;47.958;13.158;2023-05-16T05:46:23;10;8;
49914;PMS5003;35806;47.958;13.158;2023-05-16T05:48:50;13;11;
49914;PMS5003;35806;47.958;13.158;2023-05-16T05:51:18;10;10;
49914;PMS5003;35806;47.958;13.158;2023-05-16T05:53:47;8;7;
49914;PMS5003;35806;47.958;13.158;2023-05-16T05:56:14;12;12;
49914;PMS5003;35806;47.958;13.158;2023-05-16T05:58:42;10;10;
49914;PMS5003;35806;47.958;13.158;2023-05-16T06:01:09;12;11;
49914;PMS5003;35806;47.958;13.158;2023-05-16T14:30:45;33;31;
49914;PMS5003;35806;47.958;13.158;2023-05-16T14:33:12;25;24;
49914;PMS5003;35806;47.958;13.158;2023-05-16T14:35:40;28;26;
49914;PMS5003;35806;47.958;13.158;2023-05-16T14:38:07;24;24;
49914;PMS5003;35806;47.958;13.158;2023-05-16T14:40:35;21;20;
49914;PMS5003;35806;47.958;13.158;2023-05-16T14:43:02;23;23;
49914;PMS5003;35806;47.958;13.158;2023-05-16T14:45:29;25;24;
49914;PMS5003;35806;47.958;13.158;2023-05-16T14:47:57;32;32;
49914;PMS5003;35806;47.958;13.158;2023-05-16T14:50:24;28;28;
49914;PMS5003;35806;47.958;13.158;2023-05-16T14:52:57;32;31;
49914;PMS5003;35806;47.958;13.158;2023-05-16T14:55:25;24;23;
49914;PMS5003;35806;47.958;13.158;2023-05-16T14:57:52;27;25;
49914;PMS5003;35806;47.958;13.158;2023-05-16T15:00:20;26;25;
49914;PMS5003;35806;47.958;13.158;2023-05-16T15:02:49;28;27;
49914;PMS5003;35806;47.958;13.158;2023-05-16T15:05:17;26;24;
49914;PMS5003;35806;47.958;13.158;2023-05-16T15:07:44;23;23;
49914;PMS5003;35806;47.958;13.158;2023-05-16T15:10:12;26;23;
49914;PMS5003;35806;47.958;13.158;2023-05-16T15:12:39;21;21;
49914;PMS5003;35806;47.958;13.158;2023-05-16T15:15:06;24;22;
49914;PMS5003;35806;47.958;13.158;2023-05-16T15:17:34;22;21;
49914;PMS5003;35806;47.958;13.158;2023-05-16T15:20:01;22;22;
49914;PMS5003;35806;47.958;13.158;2023-05-16T15:22:29;28;24;
49914;PMS5003;35806;47.958;13.158;2023-05-16T15:24:56;19;19;
49914;PMS5003;35806;47.958;13.158;2023-05-16T15:27:24;20;20;
49914;PMS5003;35806;47.958;13.158;2023-05-16T15:29:51;19;19;
49914;PMS5003;35806;47.958;13.158;2023-05-16T15:32:19;23;22;
49914;PMS5003;35806;47.958;13.158;2023-05-16T15:34:46;21;18;
49914;PMS5003;35806;47.958;13.158;2023-05-16T15:37:34;23;20;
49914;PMS5003;35806;47.958;13.158;2023-05-16T15:40:01;27;26;
49914;PMS5003;35806;47.958;13.158;2023-05-16T15:42:28;19;18;
49914;PMS5003;35806;47.958;13.158;2023-05-16T15:44:56;23;22;
49914;PMS5003;35806;47.958;13.158;2023-05-16T15:47:38;20;20;
49914;PMS5003;35806;47.958;13.158;2023-05-16T15:50:07;23;23;
49914;PMS5003;35806;47.958;13.158;2023-05-16T15:52:35;20;18;
49914;PMS5003;35806;47.958;13.158;2023-05-16T15:55:02;31;30;
49914;PMS5003;35806;47.958;13.158;2023-05-16T15:57:30;28;25;
49914;PMS5003;35806;47.958;13.158;2023-05-16T15:59:57;21;21;
49914;PMS5003;35806;47.958;13.158;2023-05-16T16:02:24;22;22;
49914;PMS5003;35806;47.958;13.158;2023-05-16T16:04:52;19;19;
49914;PMS5003;35806;47.958;13.158;2023-05-16T16:07:20;23;23;
49914;PMS5003;35806;47.958;13.158;2023-05-16T16:09:48;23;23;
49914;PMS5003;35806;47.958;13.158;2023-05-16T16:12:15;27;27;
49914;PMS5003;35806;47.958;13.158;2023-05-16T16:14:43;28;27;
49914;PMS5003;35806;47.958;13.158;2023-05-16T16:17:10;27;27;
49914;PMS5003;35806;47.958;13.158;2023-05-16T16:19:37;29;23;
49914;PMS5003;35806;47.958;13.158;2023-05-16T16:22:04;25;24;
49914;PMS5003;35806;47.958;13.158;2023-05-16T16:24:31;30;28;
49914;PMS5003;35806;47.958;13.158;2023-05-16T16:26:58;24;23;
49914;PMS5003;35806;47.958;13.158;2023-05-16T16:29:26;28;26;
49914;PMS5003;35806;47.958;13.158;2023-05-16T16:31:53;21;21;
49914;PMS5003;35806;47.958;13.158;2023-05-16T16:34:21;29;28;
49914;PMS5003;35806;47.958;13.158;2023-05-16T16:36:49;27;25;
49914;PMS5003;35806;47.958;13.158;2023-05-16T16:39:16;25;25;
49914;PMS5003;35806;47.958;13.158;2023-05-16T16:41:43;25;25;
49914;PMS5003;35806;47.958;13.158;2023-05-16T16:44:11;22;22;
49914;PMS5003;35806;47.958;13.158;2023-05-16T16:46:39;26;24;
49914;PMS5003;35806;47.958;13.158;2023-05-16T16:49:06;25;23;
49914;PMS5003;35806;47.958;13.158;2023-05-16T16:51:33;29;27;
49914;PMS5003;35806;47.958;13.158;2023-05-16T16:54:01;27;26;
49914;PMS5003;35806;47.958;13.158;2023-05-16T16:56:28;27;26;
49914;PMS5003;35806;47.958;13.158;2023-05-16T16:58:55;24;23;
49914;PMS5003;35806;47.958;13.158;2023-05-16T17:01:23;28;26;
49914;PMS5003;35806;47.958;13.158;2023-05-16T17:03:50;25;25;
49914;PMS5003;35806;47.958;13.158;2023-05-16T17:06:18;24;23;
49914;PMS5003;35806;47.958;13.158;2023-05-16T17:08:45;24;21;
49914;PMS5003;35806;47.958;13.158;2023-05-16T17:11:13;23;22;
49914;PMS5003;35806;47.958;13.158;2023-05-16T17:13:41;28;24;
49914;PMS5003;35806;47.958;13.158;2023-05-16T17:16:08;20;20;
49914;PMS5003;35806;47.958;13.158;2023-05-16T17:18:35;29;26;
49914;PMS5003;35806;47.958;13.158;2023-05-16T17:21:02;24;23;
49914;PMS5003;35806;47.958;13.158;2023-05-16T17:23:30;27;26;
49914;PMS5003;35806;47.958;13.158;2023-05-16T17:25:58;25;20;
49914;PMS5003;35806;47.958;13.158;2023-05-16T17:28:25;26;26;
49914;PMS5003;35806;47.958;13.158;2023-05-16T17:30:53;22;21;
49914;PMS5003;35806;47.958;13.158;2023-05-16T17:33:20;20;19;
49914;PMS5003;35806;47.958;13.158;2023-05-16T17:35:47;22;20;
49914;PMS5003;35806;47.958;13.158;2023-05-16T17:38:20;21;20;
49914;PMS5003;35806;47.958;13.158;2023-05-16T17:40:47;20;19;
49914;PMS5003;35806;47.958;13.158;2023-05-16T17:43:14;21;20;
49914;PMS5003;35806;47.958;13.158;2023-05-16T17:45:41;15;15;
49914;PMS5003;35806;47.958;13.158;2023-05-16T17:48:09;17;17;
49914;PMS5003;35806;47.958;13.158;2023-05-16T17:50:36;18;18;
49914;PMS5003;35806;47.958;13.158;2023-05-16T17:56:50;15;15;
49914;PMS5003;35806;47.958;13.158;2023-05-16T17:59:18;15;14;
49914;PMS5003;35806;47.958;13.158;2023-05-16T18:01:46;17;14;
49914;PMS5003;35806;47.958;13.158;2023-05-16T18:04:13;18;17;
49914;PMS5003;35806;47.958;13.158;2023-05-16T18:06:41;22;21;
49914;PMS5003;35806;47.958;13.158;2023-05-16T18:09:09;22;20;
49914;PMS5003;35806;47.958;13.158;2023-05-16T18:11:37;17;17;
49914;PMS5003;35806;47.958;13.158;2023-05-16T18:14:05;20;16;
49914;PMS5003;35806;47.958;13.158;2023-05-16T18:16:33;18;16;
49914;PMS5003;35806;47.958;13.158;2023-05-16T18:19:02;18;17;
49914;PMS5003;35806;47.958;13.158;2023-05-16T18:21:29;20;18;
49914;PMS5003;35806;47.958;13.158;2023-05-16T18:24:01;19;18;
49914;PMS5003;35806;47.958;13.158;2023-05-16T18:26:29;21;21;
49914;PMS5003;35806;47.958;13.158;2023-05-16T18:28:56;19;16;
49914;PMS5003;35806;47.958;13.158;2023-05-16T18:31:23;20;20;
49914;PMS5003;35806;47.958;13.158;2023-05-16T18:33:50;19;19;
49914;PMS5003;35806;47.958;13.158;2023-05-16T18:36:18;19;19;
49914;PMS5003;35806;47.958;13.158;2023-05-16T18:38:45;17;17;
49914;PMS5003;35806;47.958;13.158;2023-05-16T18:41:22;18;18;
49914;PMS5003;35806;47.958;13.158;2023-05-16T18:43:49;15;15;
49914;PMS5003;35806;47.958;13.158;2023-05-16T18:46:17;17;17;
49914;PMS5003;35806;47.958;13.158;2023-05-16T18:48:44;15;15;
49914;PMS5003;35806;47.958;13.158;2023-05-16T18:51:15;17;17;
49914;PMS5003;35806;47.958;13.158;2023-05-16T18:53:43;14;14;
49914;PMS5003;35806;47.958;13.158;2023-05-16T18:56:10;15;14;
49914;PMS5003;35806;47.958;13.158;2023-05-16T18:58:37;16;16;
49914;PMS5003;35806;47.958;13.158;2023-05-16T19:01:04;14;13;
49914;PMS5003;35806;47.958;13.158;2023-05-16T19:03:31;16;16;
49914;PMS5003;35806;47.958;13.158;2023-05-16T19:06:29;13;13;
49914;PMS5003;35806;47.958;13.158;2023-05-16T19:08:55;18;17;
49914;PMS5003;35806;47.958;13.158;2023-05-16T19:11:23;15;15;
49914;PMS5003;35806;47.958;13.158;2023-05-16T19:14:23;17;17;
49914;PMS5003;35806;47.958;13.158;2023-05-16T19:17:23;21;20;
49914;PMS5003;35806;47.958;13.158;2023-05-16T19:19:51;20;19;
49914;PMS5003;35806;47.958;13.158;2023-05-16T19:23:57;18;18;
49914;PMS5003;35806;47.958;13.158;2023-05-16T19:26:59;17;17;
49914;PMS5003;35806;47.958;13.158;2023-05-16T19:29:44;15;15;
49914;PMS5003;35806;47.958;13.158;2023-05-16T19:33:16;15;15;
49914;PMS5003;35806;47.958;13.158;2023-05-16T19:35:56;17;17;
49914;PMS5003;35806;47.958;13.158;2023-05-16T19:38:34;14;14;
49914;PMS5003;35806;47.958;13.158;2023-05-16T19:41:17;19;15;
49914;PMS5003;35806;47.958;13.158;2023-05-16T19:44:50;17;16;
49914;PMS5003;35806;47.958;13.158;2023-05-16T20:03:50;15;14;
49914;PMS5003;35806;47.958;13.158;2023-05-16T20:06:51;16;14;
49914;PMS5003;35806;47.958;13.158;2023-05-16T20:09:20;15;15;
49914;PMS5003;35806;47.958;13.158;2023-05-16T20:13:28;13;13;
49914;PMS5003;35806;47.958;13.158;2023-05-16T20:15:55;12;12;
49914;PMS5003;35806;47.958;13.158;2023-05-16T20:18:24;14;14;
49914;PMS5003;35806;47.958;13.158;2023-05-16T20:20:51;16;13;
49914;PMS5003;35806;47.958;13.158;2023-05-16T20:23:19;15;12;
49914;PMS5003;35806;47.958;13.158;2023-05-16T20:25:47;15;14;
49914;PMS5003;35806;47.958;13.158;2023-05-16T20:28:14;12;12;
49914;PMS5003;35806;47.958;13.158;2023-05-16T20:32:39;12;12;
49914;PMS5003;35806;47.958;13.158;2023-05-16T20:35:07;16;15;
49914;PMS5003;35806;47.958;13.158;2023-05-16T20:37:34;13;13;
49914;PMS5003;35806;47.958;13.158;2023-05-16T20:40:02;12;12;
49914;PMS5003;35806;47.958;13.158;2023-05-16T20:42:30;15;12;
49914;PMS5003;35806;47.958;13.158;2023-05-16T20:44:57;14;13;
49914;PMS5003;35806;47.958;13.158;2023-05-16T20:47:25;14;13;
49914;PMS5003;35806;47.958;13.158;2023-05-16T20:49:53;13;13;
49914;PMS5003;35806;47.958;13.158;2023-05-16T20:52:26;13;13;
49914;PMS5003;35806;47.958;13.158;2023-05-16T20:54:54;16;15;
49914;PMS5003;35806;47.958;13.158;2023-05-16T20:57:21;12;12;
49914;PMS5003;35806;47.958;13.158;2023-05-16T20:59:50;16;15;
49914;PMS5003;35806;47.958;13.158;2023-05-16T21:02:27;19;18;
49914;PMS5003;35806;47.958;13.158;2023-05-16T21:04:54;21;21;
49914;PMS5003;35806;47.958;13.158;2023-05-16T21:07:21;23;21;
49914;PMS5003;35806;47.958;13.158;2023-05-16T21:09:49;20;20;
49914;PMS5003;35806;47.958;13.158;2023-05-16T21:12:16;24;23;
49914;PMS5003;35806;47.958;13.158;2023-05-16T21:14:43;25;23;
49914;PMS5003;35806;47.958;13.158;2023-05-16T21:17:11;32;30;
49914;PMS5003;35806;47.958;13.158;2023-05-16T21:19:38;28;27;
49914;PMS5003;35806;47.958;13.158;2023-05-16T21:22:05;29;29;
49914;PMS5003;35806;47.958;13.158;2023-05-16T21:24:38;30;29;
49914;PMS5003;35806;47.958;13.158;2023-05-16T21:27:05;27;25;
49914;PMS5003;35806;47.958;13.158;2023-05-16T21:29:32;30;29;
49914;PMS5003;35806;47.958;13.158;2023-05-16T21:31:59;31;26;
49914;PMS5003;35806;47.958;13.158;2023-05-16T21:34:27;32;29;
49914;PMS5003;35806;47.958;13.158;2023-05-16T21:36:55;31;26;
49914;PMS5003;35806;47.958;13.158;2023-05-16T21:39:22;34;34;
49914;PMS5003;35806;47.958;13.158;2023-05-16T21:41:50;34;32;
49914;PMS5003;35806;47.958;13.158;2023-05-16T21:44:18;34;33;
49914;PMS5003;35806;47.958;13.158;2023-05-16T21:46:45;28;27;
49914;PMS5003;35806;47.958;13.158;2023-05-16T21:49:13;30;30;
49914;PMS5003;35806;47.958;13.158;2023-05-16T21:51:40;34;30;
49914;PMS5003;35806;47.958;13.158;2023-05-16T21:54:07;35;34;
49914;PMS5003;35806;47.958;13.158;2023-05-16T21:56:34;32;29;
49914;PMS5003;35806;47.958;13.158;2023-05-16T21:59:02;30;28;
49914;PMS5003;35806;47.958;13.158;2023-05-16T22:01:29;30;29;
49914;PMS5003;35806;47.958;13.158;2023-05-16T22:03:57;35;33;
49914;PMS5003;35806;47.958;13.158;2023-05-16T22:06:25;28;28;
49914;PMS5003;35806;47.958;13.158;2023-05-16T22:08:53;35;30;
49914;PMS5003;35806;47.958;13.158;2023-05-16T22:11:20;27;26;
49914;PMS5003;35806;47.958;13.158;2023-05-16T22:13:47;26;26;
49914;PMS5003;35806;47.958;13.158;2023-05-16T22:16:14;34;34;
49914;PMS5003;35806;47.958;13.158;2023-05-16T22:18:41;27;27;
49914;PMS5003;35806;47.958;13.158;2023-05-16T22:21:09;30;30;
49914;PMS5003;35806;47.958;13.158;2023-05-16T22:23:36;31;30;
49914;PMS5003;35806;47.958;13.158;2023-05-16T22:26:04;34;32;
49914;PMS5003;35806;47.958;13.158;2023-05-16T22:28:31;33;31;
49914;PMS5003;35806;47.958;13.158;2023-05-16T22:30:58;38;37;
49914;PMS5003;35806;47.958;13.158;2023-05-16T22:33:26;40;37;
49914;PMS5003;35806;47.958;13.158;2023-05-16T22:35:53;38;35;
49914;PMS5003;35806;47.958;13.158;2023-05-16T22:38:21;39;34;
49914;PMS5003;35806;47.958;13.158;2023-05-16T22:40:48;32;32;
49914;PMS5003;35806;47.958;13.158;2023-05-16T22:43:15;40;39;
49914;PMS5003;35806;47.958;13.158;2023-05-16T22:45:43;38;34;
49914;PMS5003;35806;47.958;13.158;2023-05-16T22:48:10;34;31;
49914;PMS5003;35806;47.958;13.158;2023-05-16T22:50:37;41;37;
49914;PMS5003;35806;47.958;13.158;2023-05-16T22:53:04;36;35;
49914;PMS5003;35806;47.958;13.158;2023-05-16T22:55:31;40;38;
49914;PMS5003;35806;47.958;13.158;2023-05-16T22:57:58;35;35;
49914;PMS5003;35806;47.958;13.158;2023-05-16T23:00:25;42;37;
49914;PMS5003;35806;47.958;13.158;2023-05-16T23:02:55;41;38;
49914;PMS5003;35806;47.958;13.158;2023-05-16T23:05:44;40;38;
49914;PMS5003;35806;47.958;13.158;2023-05-16T23:08:24;34;31;
49914;PMS5003;35806;47.958;13.158;2023-05-16T23:11:45;35;34;
49914;PMS5003;35806;47.958;13.158;2023-05-16T23:14:12;41;40;
49914;PMS5003;35806;47.958;13.158;2023-05-16T23:16:39;35;31;
49914;PMS5003;35806;47.958;13.158;2023-05-16T23:19:06;39;38;
49914;PMS5003;35806;47.958;13.158;2023-05-16T23:21:34;40;35;
49914;PMS5003;35806;47.958;13.158;2023-05-16T23:24:02;34;33;
49914;PMS5003;35806;47.958;13.158;2023-05-16T23:26:29;37;33;
49914;PMS5003;35806;47.958;13.158;2023-05-16T23:28:56;35;30;
49914;PMS5003;35806;47.958;13.158;2023-05-16T23:31:23;29;26;
49914;PMS5003;35806;47.958;13.158;2023-05-16T23:33:50;29;27;
49914;PMS5003;35806;47.958;13.158;2023-05-16T23:36:17;28;25;
49914;PMS5003;35806;47.958;13.158;2023-05-16T23:38:44;31;28;
49914;PMS5003;35806;47.958;13.158;2023-05-16T23:41:11;28;24;
49914;PMS5003;35806;47.958;13.158;2023-05-16T23:43:38;28;25;
49914;PMS5003;35806;47.958;13.158;2023-05-16T23:46:05;27;23;
49914;PMS5003;35806;47.958;13.158;2023-05-16T23:48:33;24;20;
49914;PMS5003;35806;47.958;13.158;2023-05-16T23:51:01;21;17;
49914;PMS5003;35806;47.958;13.158;2023-05-16T23:53:28;26;24;
49914;PMS5003;35806;47.958;13.158;2023-05-16T23:55:56;23;22;
49914;PMS5003;35806;47.958;13.158;2023-05-16T23:58:23;21;20;
